Time;durP1;ratioP1;P1;durP2;ratioP2;P2;SDS_P1;SDS_P2;PMS_P1;PMS_P2;Temp;Humidity;BMP_temperature;BMP_pressure;BME280_temperature;BME280_humidity;BME280_pressure;Samples;Min_cycle;Max_cycle;Signal;HPM_P1;HPM_P2
2021/01/20 00:04:16;;;;;;;2.50;2.30;;;6.20;40.90;;;;;;10436327;28;20229;-73
2021/01/20 00:09:18;;;;;;;3.20;2.53;;;6.20;41.10;;;;;;10437488;28;20224;-71
2021/01/20 00:14:21;;;;;;;3.70;2.80;;;6.10;41.00;;;;;;10437033;28;20613;-71
2021/01/20 00:19:24;;;;;;;2.50;2.30;;;6.10;40.90;;;;;;10441163;28;20239;-71
2021/01/20 00:24:26;;;;;;;2.60;2.40;;;6.10;40.80;;;;;;10443409;28;21200;-71
2021/01/20 00:29:28;;;;;;;2.90;2.40;;;6.00;40.80;;;;;;10433022;28;20222;-70
2021/01/20 00:34:31;;;;;;;2.97;2.70;;;6.00;40.70;;;;;;10435711;28;20577;-71
2021/01/20 00:39:33;;;;;;;2.47;2.27;;;5.90;40.80;;;;;;10428885;28;20243;-71
2021/01/20 00:44:36;;;;;;;4.10;2.87;;;5.90;40.60;;;;;;10445399;28;20704;-71
2021/01/20 00:49:39;;;;;;;2.30;2.10;;;5.80;40.50;;;;;;10432022;28;20418;-71
2021/01/20 00:54:41;;;;;;;1.63;1.50;;;5.70;40.40;;;;;;10436124;28;20307;-71
2021/01/20 00:59:44;;;;;;;2.00;1.67;;;5.60;40.40;;;;;;10431233;28;20650;-71
2021/01/20 01:04:47;;;;;;;1.43;1.33;;;5.60;40.70;;;;;;10433910;28;20223;-71
2021/01/20 01:09:49;;;;;;;1.47;1.37;;;5.50;40.50;;;;;;10425449;28;20224;-71
2021/01/20 01:14:51;;;;;;;1.40;1.30;;;5.50;40.60;;;;;;10435482;28;20239;-71
2021/01/20 01:19:54;;;;;;;1.63;1.40;;;5.50;40.70;;;;;;10434277;28;20243;-71
2021/01/20 01:24:56;;;;;;;1.30;1.20;;;5.50;40.80;;;;;;10435245;28;20225;-71
2021/01/20 01:29:58;;;;;;;1.30;1.20;;;5.50;40.70;;;;;;10435229;28;20235;-71
2021/01/20 01:35:01;;;;;;;1.20;1.10;;;5.50;40.50;;;;;;10426338;28;20591;-71
2021/01/20 01:40:05;;;;;;;1.20;1.10;;;5.40;40.50;;;;;;10478541;28;20290;-71
2021/01/20 01:45:08;;;;;;;1.33;1.10;;;5.40;40.50;;;;;;10475654;28;20221;-71
2021/01/20 01:50:12;;;;;;;1.30;1.13;;;5.40;40.30;;;;;;10481049;28;20715;-71
2021/01/20 01:55:15;;;;;;;0.93;0.93;;;5.30;40.20;;;;;;10475239;28;20333;-71
2021/01/20 02:00:18;;;;;;;1.20;1.10;;;5.20;40.30;;;;;;10480789;28;20224;-71
2021/01/20 02:05:21;;;;;;;1.10;1.10;;;5.20;40.30;;;;;;10470797;28;20225;-71
2021/01/20 02:10:23;;;;;;;1.63;1.40;;;5.10;40.10;;;;;;10471066;28;20231;-71
2021/01/20 02:15:36;;;;;;;1.73;1.63;;;5.10;40.20;;;;;;10480566;28;20225;-71
2021/01/20 02:21:02;;;;;;;1.47;1.37;;;5.00;40.30;;;;;;10480415;28;20228;-71
2021/01/20 02:26:38;;;;;;;1.70;1.57;;;4.90;40.30;;;;;;10476572;28;20220;-71
2021/01/20 02:31:42;;;;;;;1.53;1.40;;;4.90;40.30;;;;;;10430998;28;20251;-71
2021/01/20 02:36:46;;;;;;;1.53;1.40;;;4.90;40.40;;;;;;10477961;28;20252;-71
2021/01/20 02:41:48;;;;;;;1.87;1.53;;;4.90;40.40;;;;;;10480079;28;20315;-71
2021/01/20 02:46:52;;;;;;;1.60;1.50;;;4.90;40.40;;;;;;10477283;28;20271;-71
2021/01/20 02:52:00;;;;;;;1.57;1.47;;;4.90;40.40;;;;;;10480254;28;20227;-71
2021/01/20 02:57:04;;;;;;;1.43;1.23;;;4.90;40.30;;;;;;10479801;28;20220;-71
2021/01/20 03:02:12;;;;;;;1.67;1.37;;;4.90;40.30;;;;;;10480920;28;20564;-71
2021/01/20 03:07:16;;;;;;;1.63;1.40;;;4.90;40.20;;;;;;10478659;28;20225;-71
2021/01/20 03:12:24;;;;;;;2.00;1.80;;;4.80;40.10;;;;;;10475867;28;20233;-70
2021/01/20 03:17:31;;;;;;;1.80;1.70;;;4.80;40.00;;;;;;10476009;28;20224;-70
2021/01/20 03:22:33;;;;;;;1.93;1.73;;;4.70;39.90;;;;;;10479441;28;20724;-70
2021/01/20 03:27:36;;;;;;;1.60;1.50;;;4.60;39.70;;;;;;10477768;28;20224;-70
2021/01/20 03:32:39;;;;;;;1.60;1.47;;;4.50;39.80;;;;;;10485966;28;20228;-70
2021/01/20 03:37:41;;;;;;;1.90;1.63;;;4.30;39.80;;;;;;10481817;28;20231;-70
2021/01/20 03:42:43;;;;;;;1.83;1.70;;;4.20;39.80;;;;;;10478106;28;20231;-70
2021/01/20 03:47:46;;;;;;;1.73;1.63;;;4.10;39.90;;;;;;10480738;28;20700;-69
2021/01/20 03:52:49;;;;;;;2.27;1.90;;;4.10;40.20;;;;;;10476232;28;20227;-69
2021/01/20 03:57:51;;;;;;;2.47;1.90;;;4.10;40.30;;;;;;10481323;28;20299;-69
2021/01/20 04:02:54;;;;;;;1.77;1.43;;;4.10;40.30;;;;;;10477297;28;20228;-69
2021/01/20 04:07:56;;;;;;;1.90;1.77;;;4.10;40.20;;;;;;10472643;28;20316;-69
2021/01/20 04:12:58;;;;;;;1.63;1.53;;;4.00;40.10;;;;;;10480540;28;20315;-69
2021/01/20 04:18:02;;;;;;;1.87;1.77;;;4.00;40.10;;;;;;10471300;28;20224;-69
2021/01/20 04:23:04;;;;;;;2.97;1.53;;;4.00;40.00;;;;;;10477377;28;20226;-69
2021/01/20 04:28:06;;;;;;;1.77;1.67;;;4.00;39.90;;;;;;10475710;28;20225;-69
2021/01/20 04:33:09;;;;;;;2.97;1.80;;;4.00;40.10;;;;;;10478855;28;20229;-69
2021/01/20 04:38:11;;;;;;;1.77;1.60;;;3.90;40.10;;;;;;10475427;28;20553;-69
2021/01/20 04:43:13;;;;;;;2.23;1.70;;;3.90;40.10;;;;;;10477173;28;20221;-69
2021/01/20 04:48:19;;;;;;;2.50;1.53;;;3.90;40.10;;;;;;10479781;28;20228;-69
2021/01/20 04:53:23;;;;;;;1.80;1.70;;;4.00;40.20;;;;;;10470651;28;20244;-69
2021/01/20 04:58:25;;;;;;;3.00;1.60;;;3.90;39.90;;;;;;10475345;28;20224;-69
2021/01/20 05:03:28;;;;;;;1.30;1.20;;;3.90;40.00;;;;;;10467177;28;20251;-69
2021/01/20 05:08:31;;;;;;;1.43;1.33;;;3.90;40.00;;;;;;10471938;28;20229;-69
2021/01/20 05:13:34;;;;;;;1.67;1.57;;;3.80;39.90;;;;;;10484980;28;20261;-69
2021/01/20 05:18:48;;;;;;;1.50;1.40;;;3.80;39.90;;;;;;10482648;28;20315;-68
2021/01/20 05:23:50;;;;;;;1.60;1.50;;;3.80;39.80;;;;;;10490477;28;20228;-68
2021/01/20 05:28:52;;;;;;;2.30;2.10;;;3.70;39.80;;;;;;10478537;28;20582;-68
2021/01/20 05:33:55;;;;;;;2.07;1.73;;;3.70;39.80;;;;;;10487891;28;20232;-68
2021/01/20 05:38:58;;;;;;;2.40;2.10;;;3.70;39.80;;;;;;10478184;28;20225;-68
2021/01/20 05:44:12;;;;;;;2.03;1.93;;;3.60;39.80;;;;;;10478469;28;20238;-68
2021/01/20 05:49:23;;;;;;;2.87;2.10;;;3.60;39.80;;;;;;10488392;28;20572;-68
2021/01/20 05:54:34;;;;;;;2.27;2.07;;;3.60;39.90;;;;;;10473315;28;20594;-68
2021/01/20 05:59:36;;;;;;;2.30;1.83;;;3.60;40.10;;;;;;10472597;28;20228;-68
2021/01/20 06:04:39;;;;;;;3.00;2.30;;;3.50;40.00;;;;;;10481615;28;20216;-68
2021/01/20 06:09:43;;;;;;;2.07;1.87;;;3.50;40.10;;;;;;10473910;28;20235;-68
2021/01/20 06:14:46;;;;;;;4.23;2.90;;;3.50;40.30;;;;;;10486361;28;20756;-68
2021/01/20 06:19:51;;;;;;;3.37;3.07;;;3.50;40.10;;;;;;10481020;28;20220;-68
2021/01/20 06:24:57;;;;;;;3.70;3.33;;;3.40;39.80;;;;;;10484675;28;20232;-68
2021/01/20 06:30:05;;;;;;;3.83;3.43;;;3.30;39.80;;;;;;10481957;28;20729;-68
2021/01/20 06:35:10;;;;;;;3.27;2.97;;;3.10;40.10;;;;;;10476850;28;20232;-68
2021/01/20 06:40:42;;;;;;;4.33;3.43;;;3.10;40.40;;;;;;10478517;28;20572;-68
2021/01/20 06:46:12;;;;;;;4.80;4.00;;;3.10;40.40;;;;;;10376857;28;20223;-68
2021/01/20 06:51:15;;;;;;;4.07;3.73;;;3.10;40.40;;;;;;10477060;28;20743;-68
2021/01/20 06:56:30;;;;;;;3.37;3.07;;;3.10;40.40;;;;;;10482444;28;20589;-68
2021/01/20 07:01:32;;;;;;;4.77;4.33;;;3.20;40.50;;;;;;10474507;28;20221;-68
2021/01/20 07:06:42;;;;;;;14.07;9.93;;;3.20;40.40;;;;;;10479837;28;20231;-68
2021/01/20 07:12:09;;;;;;;11.77;8.53;;;3.20;40.40;;;;;;10475236;28;20221;-68
2021/01/20 07:17:12;;;;;;;8.97;6.50;;;3.20;40.40;;;;;;10465811;28;20224;-68
2021/01/20 07:22:17;;;;;;;11.73;10.53;;;3.20;40.50;;;;;;10478010;28;20229;-68
2021/01/20 07:27:19;;;;;;;12.03;10.40;;;3.20;40.30;;;;;;10483056;28;20233;-68
2021/01/20 07:32:31;;;;;;;9.47;8.57;;;3.20;40.40;;;;;;10472139;28;20236;-68
2021/01/20 07:37:34;;;;;;;7.90;7.20;;;3.20;40.30;;;;;;10475961;28;20224;-68
2021/01/20 07:42:39;;;;;;;6.43;5.83;;;3.30;40.50;;;;;;10485575;28;20228;-68
2021/01/20 07:47:45;;;;;;;4.90;4.10;;;3.20;40.60;;;;;;10478178;28;20224;-68
2021/01/20 07:52:49;;;;;;;6.73;4.83;;;3.10;40.60;;;;;;10479607;28;20239;-68
2021/01/20 07:57:56;;;;;;;4.30;3.90;;;3.20;40.70;;;;;;10477686;28;20704;-68
2021/01/20 08:03:01;;;;;;;5.47;4.87;;;3.20;40.80;;;;;;10481448;28;20259;-68
2021/01/20 08:08:13;;;;;;;6.13;5.53;;;3.20;40.80;;;;;;10467073;28;20689;-68
2021/01/20 08:13:15;;;;;;;6.40;5.80;;;3.30;41.00;;;;;;10479638;28;20571;-68
2021/01/20 08:18:18;;;;;;;7.07;5.80;;;3.30;40.90;;;;;;10477206;28;20217;-68
2021/01/20 08:23:33;;;;;;;8.67;6.27;;;3.30;40.90;;;;;;10471258;28;20333;-68
2021/01/20 08:28:35;;;;;;;9.10;6.03;;;3.30;40.90;;;;;;10470551;28;20661;-68
2021/01/20 08:33:37;;;;;;;5.90;5.30;;;3.40;41.00;;;;;;10475589;28;20226;-68
2021/01/20 08:38:41;;;;;;;7.67;6.87;;;3.40;41.00;;;;;;10467585;28;20227;-68
2021/01/20 08:43:43;;;;;;;7.20;6.50;;;3.50;41.20;;;;;;10473007;28;20230;-68
2021/01/20 08:48:45;;;;;;;8.17;7.17;;;3.50;41.20;;;;;;10479129;28;20309;-68
2021/01/20 08:53:49;;;;;;;11.77;9.10;;;3.50;41.20;;;;;;10484979;28;20255;-68
2021/01/20 08:58:53;;;;;;;7.67;5.90;;;3.50;41.20;;;;;;10479276;28;20349;-70
2021/01/20 09:03:57;;;;;;;7.17;5.53;;;3.60;41.60;;;;;;10480479;28;20228;-68
2021/01/20 09:09:01;;;;;;;5.13;4.57;;;3.70;41.50;;;;;;10484938;28;20224;-68
2021/01/20 09:14:04;;;;;;;4.73;4.20;;;3.70;41.50;;;;;;10486131;28;20620;-69
2021/01/20 09:19:06;;;;;;;5.47;4.33;;;3.80;41.60;;;;;;10474973;28;20228;-69
2021/01/20 09:24:09;;;;;;;7.70;6.43;;;3.90;41.60;;;;;;10480313;28;20684;-68
2021/01/20 09:29:28;;;;;;;6.70;5.87;;;3.90;41.50;;;;;;10485863;28;20597;-68
2021/01/20 09:34:30;;;;;;;8.67;5.33;;;4.00;41.60;;;;;;10487254;28;20309;-68
2021/01/20 09:39:33;;;;;;;6.50;5.20;;;4.10;41.70;;;;;;10478870;28;20258;-68
2021/01/20 09:44:35;;;;;;;6.03;4.87;;;4.10;42.00;;;;;;10475890;28;20239;-68
2021/01/20 09:49:37;;;;;;;5.37;4.60;;;4.20;42.00;;;;;;10485198;28;20622;-68
2021/01/20 09:54:40;;;;;;;5.27;4.27;;;4.30;42.00;;;;;;10478982;28;20220;-68
2021/01/20 09:59:42;;;;;;;9.30;4.13;;;4.40;41.90;;;;;;10483300;28;20225;-69
2021/01/20 10:04:45;;;;;;;4.17;3.73;;;4.50;42.60;;;;;;10475643;28;20232;-67
2021/01/20 10:09:49;;;;;;;5.93;4.07;;;4.60;44.70;;;;;;10480409;28;20609;-68
2021/01/20 10:14:52;;;;;;;6.50;4.20;;;5.00;45.20;;;;;;10482426;28;20264;-68
2021/01/20 10:19:54;;;;;;;5.37;4.50;;;5.30;43.90;;;;;;10478503;28;20249;-68
2021/01/20 10:24:57;;;;;;;4.87;4.27;;;5.60;43.20;;;;;;10481098;28;20294;-69
2021/01/20 10:30:00;;;;;;;5.03;4.60;;;5.70;43.10;;;;;;10477464;28;20770;-69
2021/01/20 10:35:02;;;;;;;4.73;4.00;;;5.80;43.00;;;;;;10487443;28;20318;-70
2021/01/20 10:40:07;;;;;;;6.13;4.67;;;6.00;43.00;;;;;;10481196;28;20238;-69
2021/01/20 10:45:09;;;;;;;4.63;4.00;;;6.20;42.90;;;;;;10485627;28;20359;-69
2021/01/20 10:50:13;;;;;;;3.87;3.40;;;6.30;42.80;;;;;;10484926;28;20232;-69
2021/01/20 10:55:16;;;;;;;4.13;3.70;;;6.50;43.10;;;;;;10486947;28;20612;-70
2021/01/20 11:00:19;;;;;;;5.17;3.60;;;6.80;43.20;;;;;;10480241;28;20232;-70
2021/01/20 11:05:21;;;;;;;4.50;3.53;;;7.10;43.20;;;;;;10484355;28;20252;-70
2021/01/20 11:10:24;;;;;;;5.10;2.70;;;7.30;43.00;;;;;;10472666;28;20755;-70
2021/01/20 11:15:27;;;;;;;11.37;7.80;;;7.60;42.90;;;;;;10479819;28;20305;-70
2021/01/20 11:20:29;;;;;;;3.27;2.63;;;7.90;42.70;;;;;;10478641;28;20231;-70
2021/01/20 11:25:33;;;;;;;2.80;2.50;;;8.20;42.40;;;;;;10480323;28;20220;-70
2021/01/20 11:30:35;;;;;;;2.60;2.40;;;8.40;41.50;;;;;;10471764;28;20232;-70
2021/01/20 11:35:39;;;;;;;2.13;1.93;;;8.70;41.60;;;;;;10481216;28;20316;-70
2021/01/20 11:40:42;;;;;;;2.80;2.60;;;8.90;40.90;;;;;;10481075;28;20244;-70
2021/01/20 11:45:44;;;;;;;1.80;1.70;;;9.10;40.20;;;;;;10483360;28;20311;-70
2021/01/20 11:50:47;;;;;;;1.90;1.80;;;9.30;40.50;;;;;;10482176;28;20796;-70
2021/01/20 11:55:57;;;;;;;2.67;1.97;;;9.50;40.50;;;;;;10479389;28;20716;-70
2021/01/20 12:00:59;;;;;;;3.50;3.20;;;9.70;39.90;;;;;;10481801;28;20247;-70
2021/01/20 12:06:02;;;;;;;3.33;2.50;;;9.80;40.10;;;;;;10475122;28;20224;-70
2021/01/20 12:11:05;;;;;;;2.20;2.10;;;10.00;39.10;;;;;;10480029;28;20475;-71
2021/01/20 12:16:07;;;;;;;1.77;1.67;;;10.10;38.50;;;;;;10480172;28;20228;-70
2021/01/20 12:21:09;;;;;;;2.43;2.23;;;10.20;38.60;;;;;;10479713;28;20231;-70
2021/01/20 12:26:12;;;;;;;3.13;2.83;;;10.30;39.40;;;;;;10473085;28;20220;-70
2021/01/20 12:31:15;;;;;;;5.83;5.23;;;10.40;38.40;;;;;;10474507;28;20228;-70
2021/01/20 12:36:17;;;;;;;3.67;2.83;;;10.50;38.40;;;;;;10479289;28;20265;-70
2021/01/20 12:41:20;;;;;;;2.80;2.60;;;10.60;38.20;;;;;;10462342;28;20597;-70
2021/01/20 12:46:22;;;;;;;6.23;5.50;;;10.80;37.80;;;;;;10472801;28;20301;-70
2021/01/20 12:51:37;;;;;;;4.03;3.23;;;10.90;38.10;;;;;;10476537;28;20217;-70
2021/01/20 12:56:40;;;;;;;2.90;2.20;;;10.90;37.60;;;;;;10475388;28;20220;-70
2021/01/20 13:01:42;;;;;;;3.43;2.67;;;11.00;37.40;;;;;;10478257;28;20726;-70
2021/01/20 13:06:48;;;;;;;3.03;2.77;;;11.10;37.40;;;;;;10473471;28;20255;-70
2021/01/20 13:11:51;;;;;;;5.60;4.93;;;11.10;36.20;;;;;;10478499;28;20224;-70
2021/01/20 13:16:54;;;;;;;5.77;5.17;;;11.20;36.70;;;;;;10473991;28;20220;-70
2021/01/20 13:21:56;;;;;;;4.77;3.60;;;11.20;37.00;;;;;;10476956;28;20234;-69
2021/01/20 13:26:59;;;;;;;4.83;4.33;;;11.20;36.80;;;;;;10471504;28;20231;-73
2021/01/20 13:32:02;;;;;;;3.50;3.20;;;11.20;36.40;;;;;;10475286;28;20248;-72
2021/01/20 13:37:04;;;;;;;4.50;4.10;;;11.30;36.80;;;;;;10503825;22;20259;-77
2021/01/20 13:42:08;;;;;;;5.87;5.27;;;11.30;36.60;;;;;;10490880;28;20232;-77
2021/01/20 13:47:10;;;;;;;7.10;5.47;;;11.30;36.30;;;;;;10484342;28;20254;-77
2021/01/20 13:52:12;;;;;;;9.93;5.77;;;11.30;36.50;;;;;;10487479;28;20254;-76
2021/01/20 13:57:16;;;;;;;3.60;2.80;;;11.30;36.40;;;;;;10496426;28;20785;-76
2021/01/20 14:02:19;;;;;;;4.37;2.63;;;11.30;36.10;;;;;;10496459;28;20232;-76
2021/01/20 14:07:22;;;;;;;3.17;2.80;;;11.20;35.90;;;;;;10494624;28;20345;-75
2021/01/20 14:12:26;;;;;;;4.40;2.70;;;11.20;36.20;;;;;;10493664;28;20235;-76
2021/01/20 14:17:28;;;;;;;4.13;2.90;;;11.10;35.40;;;;;;10496384;28;20663;-74
2021/01/20 14:22:31;;;;;;;3.90;2.60;;;11.10;36.00;;;;;;10490398;28;20239;-75
2021/01/20 14:27:35;;;;;;;7.00;4.80;;;11.00;36.10;;;;;;10492964;28;20640;-75
2021/01/20 14:32:37;;;;;;;9.87;4.70;;;11.00;36.10;;;;;;10495184;28;20229;-75
2021/01/20 14:37:40;;;;;;;6.87;3.40;;;11.00;36.30;;;;;;10493176;28;20224;-76
2021/01/20 14:42:43;;;;;;;3.90;3.20;;;11.00;36.10;;;;;;10486628;28;20255;-77
2021/01/20 14:47:45;;;;;;;4.60;3.30;;;10.90;36.10;;;;;;10483988;28;20240;-76
2021/01/20 14:52:48;;;;;;;4.40;3.63;;;10.90;36.10;;;;;;10469745;28;20270;-75
2021/01/20 14:57:51;;;;;;;4.43;3.70;;;10.90;36.10;;;;;;10494436;28;20244;-76
2021/01/20 15:02:54;;;;;;;5.03;3.87;;;10.80;35.70;;;;;;10494606;28;20228;-76
2021/01/20 15:07:56;;;;;;;3.57;3.23;;;10.80;36.00;;;;;;10494806;28;20251;-76
2021/01/20 15:13:00;;;;;;;4.40;4.00;;;10.70;35.90;;;;;;10495057;28;20262;-76
2021/01/20 15:18:02;;;;;;;6.93;4.50;;;10.60;35.60;;;;;;10494410;28;20679;-76
2021/01/20 15:23:05;;;;;;;6.53;5.37;;;10.50;35.80;;;;;;10493981;28;20256;-77
2021/01/20 15:28:08;;;;;;;8.40;6.37;;;10.50;35.90;;;;;;10494672;28;20242;-77
2021/01/20 15:33:10;;;;;;;7.87;6.60;;;10.40;35.70;;;;;;10493620;28;20232;-76
2021/01/20 15:38:13;;;;;;;4.70;3.83;;;10.30;35.80;;;;;;10493674;28;20576;-75
2021/01/20 15:43:16;;;;;;;4.63;4.07;;;10.20;35.80;;;;;;10454560;28;20239;-76
2021/01/20 15:48:18;;;;;;;5.40;4.10;;;10.10;35.70;;;;;;10485337;28;20600;-77
2021/01/20 15:53:21;;;;;;;10.83;8.03;;;9.90;36.70;;;;;;10487009;28;20798;-74
2021/01/20 15:58:24;;;;;;;13.87;9.00;;;9.80;36.80;;;;;;10485934;28;20699;-75
2021/01/20 16:03:26;;;;;;;15.20;10.10;;;9.60;36.60;;;;;;10483099;28;20224;-75
2021/01/20 16:08:28;;;;;;;13.77;9.03;;;9.60;36.90;;;;;;10484808;28;20322;-75
2021/01/20 16:13:31;;;;;;;8.77;6.87;;;9.50;36.90;;;;;;10487625;28;20247;-75
2021/01/20 16:18:33;;;;;;;9.40;6.47;;;9.40;36.90;;;;;;10487135;28;20307;-75
2021/01/20 16:23:36;;;;;;;9.17;7.70;;;9.30;38.30;;;;;;10481216;28;20228;-76
2021/01/20 16:28:39;;;;;;;16.63;14.73;;;9.20;37.60;;;;;;10484672;28;20234;-77
2021/01/20 16:33:41;;;;;;;17.17;14.43;;;9.20;37.80;;;;;;10470210;28;20259;-77
2021/01/20 16:38:44;;;;;;;13.33;11.97;;;9.00;37.10;;;;;;10482064;28;20231;-77
2021/01/20 16:43:47;;;;;;;12.43;10.83;;;8.90;36.90;;;;;;10482682;28;20591;-77
2021/01/20 16:48:49;;;;;;;12.73;11.40;;;8.80;37.00;;;;;;10481893;28;20245;-77
2021/01/20 16:53:51;;;;;;;9.93;8.87;;;8.70;37.10;;;;;;10471196;28;20235;-76
2021/01/20 16:58:54;;;;;;;11.77;9.90;;;8.60;37.20;;;;;;10477547;28;20227;-76
2021/01/20 17:03:56;;;;;;;5.77;5.17;;;8.60;37.00;;;;;;10484251;28;20764;-75
2021/01/20 17:08:59;;;;;;;6.47;5.83;;;8.50;37.00;;;;;;10486284;28;20253;-77
2021/01/20 17:14:02;;;;;;;8.73;7.83;;;8.50;36.90;;;;;;10487569;28;20248;-77
2021/01/20 17:19:05;;;;;;;10.57;9.57;;;8.30;36.90;;;;;;10488971;28;20233;-77
2021/01/20 17:24:08;;;;;;;11.57;10.47;;;8.20;37.10;;;;;;10487540;28;20229;-77
2021/01/20 17:29:11;;;;;;;17.50;15.30;;;8.10;37.00;;;;;;10487226;28;20735;-77
2021/01/20 17:34:13;;;;;;;20.50;16.37;;;8.00;37.00;;;;;;10485532;28;20234;-75
2021/01/20 17:39:16;;;;;;;11.90;9.37;;;7.90;37.20;;;;;;10495796;28;20591;-76
2021/01/20 17:44:19;;;;;;;10.87;9.17;;;7.80;39.10;;;;;;10483325;28;20747;-76
2021/01/20 17:49:22;;;;;;;8.57;7.60;;;7.70;38.10;;;;;;10483881;28;20224;-76
2021/01/20 17:54:24;;;;;;;9.33;8.20;;;7.60;37.80;;;;;;10476157;28;20316;-76
2021/01/20 17:59:27;;;;;;;7.77;6.83;;;7.60;37.60;;;;;;10455652;28;20315;-76
2021/01/20 18:04:29;;;;;;;13.80;10.83;;;7.60;37.60;;;;;;10476148;28;20242;-76
2021/01/20 18:09:31;;;;;;;12.20;10.63;;;7.50;37.40;;;;;;10497088;28;20228;-76
2021/01/20 18:14:36;;;;;;;11.53;8.97;;;7.40;37.30;;;;;;10494030;28;20707;-77
2021/01/20 18:19:39;;;;;;;12.00;10.60;;;7.30;37.30;;;;;;10481009;28;20807;-77
2021/01/20 18:24:41;;;;;;;14.87;13.30;;;7.30;37.40;;;;;;10489258;28;20572;-77
2021/01/20 18:29:44;;;;;;;17.60;14.63;;;7.20;37.30;;;;;;10491235;28;20239;-77
2021/01/20 18:34:47;;;;;;;20.00;17.07;;;7.20;37.20;;;;;;10493227;28;20240;-77
2021/01/20 18:39:49;;;;;;;16.53;14.53;;;7.10;37.40;;;;;;10490755;28;20759;-77
2021/01/20 18:45:11;;;;;;;15.57;13.20;;;7.00;37.20;;;;;;10480525;28;20228;-77
2021/01/20 18:50:13;;;;;;;11.20;9.77;;;6.90;36.90;;;;;;10484216;28;20231;-78
2021/01/20 18:55:15;;;;;;;15.90;13.87;;;6.90;37.20;;;;;;10491850;28;20641;-78
2021/01/20 19:00:20;;;;;;;13.90;12.20;;;6.80;37.30;;;;;;10485828;28;20224;-78
2021/01/20 19:05:22;;;;;;;14.23;12.03;;;6.70;37.10;;;;;;10494398;28;20245;-78
2021/01/20 19:10:25;;;;;;;13.73;11.97;;;6.60;37.20;;;;;;10493499;28;20225;-79
2021/01/20 19:15:28;;;;;;;13.17;10.97;;;6.50;37.00;;;;;;10488987;28;20248;-79
2021/01/20 19:20:30;;;;;;;12.40;11.03;;;6.50;37.10;;;;;;10497878;28;20235;-79
2021/01/20 19:25:33;;;;;;;9.93;8.93;;;6.40;37.20;;;;;;10504500;28;20327;-79
2021/01/20 19:30:36;;;;;;;9.53;8.43;;;6.30;37.20;;;;;;10500799;28;20237;-79
2021/01/20 19:35:39;;;;;;;14.67;12.97;;;6.20;37.30;;;;;;10492890;28;20227;-83
2021/01/20 19:40:41;;;;;;;22.27;18.77;;;6.20;37.60;;;;;;10488257;28;20224;-80
2021/01/20 19:45:44;;;;;;;16.03;14.43;;;6.10;37.50;;;;;;10486750;28;20320;-79
2021/01/20 19:50:52;;;;;;;19.80;14.90;;;6.00;37.60;;;;;;10494309;28;20224;-80
2021/01/20 19:55:55;;;;;;;18.17;15.43;;;5.90;37.50;;;;;;10488038;28;20311;-81
2021/01/20 20:00:58;;;;;;;18.13;13.80;;;5.70;37.30;;;;;;10497377;28;20244;-79
2021/01/20 20:06:01;;;;;;;13.67;11.10;;;5.60;37.30;;;;;;10503668;28;20244;-79
2021/01/20 20:11:04;;;;;;;12.93;11.40;;;5.50;37.20;;;;;;10503957;28;20232;-79
2021/01/20 20:16:07;;;;;;;12.43;11.20;;;5.50;37.20;;;;;;10497156;28;20316;-79
2021/01/20 20:21:09;;;;;;;15.23;12.70;;;5.40;37.10;;;;;;10495307;28;20263;-81
2021/01/20 20:26:11;;;;;;;13.27;11.27;;;5.40;37.10;;;;;;10490243;28;20308;-81
2021/01/20 20:31:14;;;;;;;16.50;13.67;;;5.30;37.00;;;;;;10492350;28;20594;-82
2021/01/20 20:36:22;;;;;;;11.63;10.10;;;5.20;37.00;;;;;;10497102;28;20220;-82
2021/01/20 20:41:25;;;;;;;13.37;11.57;;;5.10;37.00;;;;;;10487111;28;20253;-82
2021/01/20 20:46:28;;;;;;;11.80;10.37;;;5.10;37.00;;;;;;10500125;28;20258;-81
2021/01/20 20:51:31;;;;;;;12.20;10.83;;;5.00;36.80;;;;;;10497025;28;20966;-82
2021/01/20 20:56:34;;;;;;;17.03;15.20;;;5.00;36.90;;;;;;10497452;28;20231;-80
2021/01/20 21:01:37;;;;;;;13.93;11.67;;;4.90;37.40;;;;;;10500106;28;20235;-82
2021/01/20 21:06:40;;;;;;;13.30;11.40;;;4.70;36.70;;;;;;10498664;28;20227;-82
2021/01/20 21:11:43;;;;;;;14.57;12.07;;;4.60;37.10;;;;;;10495146;28;20297;-81
2021/01/20 21:16:46;;;;;;;13.00;11.47;;;4.50;37.50;;;;;;10483370;28;20293;-83
2021/01/20 21:21:50;;;;;;;14.00;11.50;;;4.50;37.30;;;;;;10498331;28;20232;-81
2021/01/20 21:26:52;;;;;;;10.90;9.67;;;4.40;37.30;;;;;;10484951;28;20228;-80
2021/01/20 21:31:55;;;;;;;13.60;10.60;;;4.30;37.50;;;;;;10496498;28;20270;-83
2021/01/20 21:36:58;;;;;;;12.53;10.80;;;4.30;37.50;;;;;;10498718;28;20557;-83
2021/01/20 21:42:01;;;;;;;14.30;10.60;;;4.30;37.70;;;;;;10506372;28;20243;-83
2021/01/20 21:47:07;;;;;;;10.83;9.73;;;4.20;37.50;;;;;;10492217;28;20231;-82
2021/01/20 21:52:10;;;;;;;12.03;9.43;;;4.20;37.30;;;;;;10502316;28;20260;-83
2021/01/20 21:57:12;;;;;;;11.90;9.67;;;4.20;37.30;;;;;;10502759;28;20562;-83
2021/01/20 22:02:15;;;;;;;10.33;9.27;;;4.20;37.20;;;;;;10510322;28;20851;-83
2021/01/20 22:07:18;;;;;;;11.87;9.67;;;4.10;37.10;;;;;;10500067;28;20229;-83
2021/01/20 22:12:20;;;;;;;10.20;9.20;;;4.00;37.20;;;;;;10507339;28;20252;-83
2021/01/20 22:17:23;;;;;;;10.10;8.23;;;3.90;37.30;;;;;;10503406;28;20250;-83
2021/01/20 22:22:26;;;;;;;10.10;8.40;;;3.90;37.40;;;;;;10499615;28;20311;-83
2021/01/20 22:27:29;;;;;;;12.27;8.60;;;3.80;37.50;;;;;;10496972;28;20657;-83
2021/01/20 22:32:32;;;;;;;10.53;9.43;;;3.80;37.40;;;;;;10504641;28;20282;-83
2021/01/20 22:37:37;;;;;;;9.80;8.63;;;3.80;37.50;;;;;;10497570;28;20220;-84
2021/01/20 22:42:39;;;;;;;11.10;9.10;;;3.70;37.60;;;;;;10489874;28;20231;-83
2021/01/20 22:47:42;;;;;;;9.87;8.50;;;3.70;37.50;;;;;;10497915;28;20283;-84
2021/01/20 22:52:45;;;;;;;11.50;9.10;;;3.60;37.50;;;;;;10497746;28;20279;-83
2021/01/20 22:57:47;;;;;;;10.13;8.33;;;3.50;37.50;;;;;;10489432;28;20276;-83
2021/01/20 23:02:50;;;;;;;10.70;9.40;;;3.50;37.50;;;;;;10489992;28;20274;-83
2021/01/20 23:07:52;;;;;;;9.37;8.10;;;3.40;37.70;;;;;;10491913;28;20221;-83
2021/01/20 23:12:54;;;;;;;9.17;7.43;;;3.40;37.60;;;;;;10494711;28;20226;-82
2021/01/20 23:17:58;;;;;;;9.20;8.30;;;3.30;37.50;;;;;;10496547;28;20311;-83
2021/01/20 23:23:02;;;;;;;10.40;7.40;;;3.30;37.80;;;;;;10489648;28;20227;-84
2021/01/20 23:28:05;;;;;;;8.67;7.53;;;3.30;37.90;;;;;;10486527;28;20225;-84
2021/01/20 23:33:08;;;;;;;8.80;7.57;;;3.30;38.00;;;;;;10490502;28;20228;-85
2021/01/20 23:38:11;;;;;;;10.40;8.20;;;3.30;37.70;;;;;;10482413;28;20232;-85
2021/01/20 23:43:14;;;;;;;9.60;6.80;;;3.30;37.70;;;;;;10478345;28;20320;-85
2021/01/20 23:48:17;;;;;;;10.10;8.37;;;3.30;37.90;;;;;;10484863;28;20230;-87
2021/01/20 23:53:19;;;;;;;9.57;7.67;;;3.30;37.90;;;;;;10485203;28;20229;-86
2021/01/20 23:58:21;;;;;;;8.23;7.43;;;3.20;37.70;;;;;;10487677;28;20681;-86
